sensor_id;sensor_type;location;lat;lon;timestamp;pressure;altitude;pressure_sealevel;temperature;humidity
39769;BME280;38939;47.824;14.642;2022-11-20T00:00:11;96260.81;;;5.94;90.39
39769;BME280;38939;47.824;14.642;2022-11-20T00:01:15;96254.81;;;5.93;90.35
39769;BME280;38939;47.824;14.642;2022-11-20T00:02:17;96257.25;;;5.95;90.43
39769;BME280;38939;47.824;14.642;2022-11-20T00:03:19;96260.47;;;5.97;90.84
39769;BME280;38939;47.824;14.642;2022-11-20T00:04:20;96258.47;;;5.99;90.24
39769;BME280;38939;47.824;14.642;2022-11-20T00:05:22;96260.09;;;6.00;90.08
39769;BME280;38939;47.824;14.642;2022-11-20T00:06:25;96260.09;;;6.00;90.11
39769;BME280;38939;47.824;14.642;2022-11-20T00:07:27;96258.47;;;5.99;89.95
39769;BME280;38939;47.824;14.642;2022-11-20T00:08:29;96268.84;;;5.99;90.13
39769;BME280;38939;47.824;14.642;2022-11-20T00:09:30;96267.88;;;6.00;90.72
39769;BME280;38939;47.824;14.642;2022-11-20T00:10:32;96263.28;;;6.02;90.39
39769;BME280;38939;47.824;14.642;2022-11-20T00:11:37;96263.28;;;6.02;89.92
39769;BME280;38939;47.824;14.642;2022-11-20T00:12:39;96264.66;;;5.98;89.94
39769;BME280;38939;47.824;14.642;2022-11-20T00:13:41;96265.63;;;5.97;89.72
39769;BME280;38939;47.824;14.642;2022-11-20T00:14:43;96264.06;;;5.96;90.20
39769;BME280;38939;47.824;14.642;2022-11-20T00:15:44;96271.00;;;5.95;89.92
39769;BME280;38939;47.824;14.642;2022-11-20T00:16:46;96271.00;;;5.95;89.95
39769;BME280;38939;47.824;14.642;2022-11-20T00:17:48;96276.00;;;5.97;89.89
39769;BME280;38939;47.824;14.642;2022-11-20T00:18:50;96263.41;;;5.94;90.53
39769;BME280;38939;47.824;14.642;2022-11-20T00:19:52;96266.78;;;5.94;90.31
39769;BME280;38939;47.824;14.642;2022-11-20T00:20:59;96273.41;;;5.97;89.98
39769;BME280;38939;47.824;14.642;2022-11-20T00:22:01;96267.63;;;5.95;89.58
39769;BME280;38939;47.824;14.642;2022-11-20T00:23:03;96266.63;;;5.96;89.78
39769;BME280;38939;47.824;14.642;2022-11-20T00:24:05;96276.34;;;5.94;90.55
39769;BME280;38939;47.824;14.642;2022-11-20T00:25:07;96270.56;;;5.92;89.73
39769;BME280;38939;47.824;14.642;2022-11-20T00:26:10;96270.56;;;5.92;90.25
39769;BME280;38939;47.824;14.642;2022-11-20T00:27:13;96267.97;;;5.92;90.76
39769;BME280;38939;47.824;14.642;2022-11-20T00:28:15;96272.72;;;5.88;89.90
39769;BME280;38939;47.824;14.642;2022-11-20T00:29:16;96270.50;;;5.85;90.25
39769;BME280;38939;47.824;14.642;2022-11-20T00:30:19;96275.66;;;5.85;90.89
39769;BME280;38939;47.824;14.642;2022-11-20T00:31:21;96272.47;;;5.83;90.17
39769;BME280;38939;47.824;14.642;2022-11-20T00:32:23;96272.09;;;5.86;90.45
39769;BME280;38939;47.824;14.642;2022-11-20T00:33:25;96272.72;;;5.88;90.07
39769;BME280;38939;47.824;14.642;2022-11-20T00:34:27;96280.91;;;5.92;89.92
39769;BME280;38939;47.824;14.642;2022-11-20T00:35:28;96277.50;;;5.91;90.14
39769;BME280;38939;47.824;14.642;2022-11-20T00:36:32;96280.91;;;5.92;89.89
39769;BME280;38939;47.824;14.642;2022-11-20T00:37:34;96281.53;;;5.94;89.86
39769;BME280;38939;47.824;14.642;2022-11-20T00:38:36;96279.47;;;5.89;90.00
39769;BME280;38939;47.824;14.642;2022-11-20T00:39:38;96281.22;;;5.82;90.27
39769;BME280;38939;47.824;14.642;2022-11-20T00:40:39;96276.19;;;5.74;91.16
39769;BME280;38939;47.824;14.642;2022-11-20T00:41:41;96278.16;;;5.72;90.95
39769;BME280;38939;47.824;14.642;2022-11-20T00:42:43;96282.53;;;5.71;91.70
39769;BME280;38939;47.824;14.642;2022-11-20T00:43:45;96281.53;;;5.72;91.65
39769;BME280;38939;47.824;14.642;2022-11-20T00:44:47;96281.53;;;5.72;90.96
39769;BME280;38939;47.824;14.642;2022-11-20T00:45:49;96290.72;;;5.75;91.36
39769;BME280;38939;47.824;14.642;2022-11-20T00:46:51;96287.78;;;5.78;91.82
39769;BME280;38939;47.824;14.642;2022-11-20T00:47:52;96289.00;;;5.82;91.25
39769;BME280;38939;47.824;14.642;2022-11-20T00:48:54;96284.44;;;5.84;91.39
39769;BME280;38939;47.824;14.642;2022-11-20T00:49:56;96286.59;;;5.80;91.73
39769;BME280;38939;47.824;14.642;2022-11-20T00:50:58;96279.78;;;5.79;91.74
39769;BME280;38939;47.824;14.642;2022-11-20T00:52:00;96281.16;;;5.75;92.29
39769;BME280;38939;47.824;14.642;2022-11-20T00:53:02;96273.78;;;5.72;91.94
39769;BME280;38939;47.824;14.642;2022-11-20T00:54:04;96287.16;;;5.76;92.53
39769;BME280;38939;47.824;14.642;2022-11-20T00:55:05;96289.97;;;5.81;92.89
39769;BME280;38939;47.824;14.642;2022-11-20T00:56:09;96283.44;;;5.85;92.71
39769;BME280;38939;47.824;14.642;2022-11-20T00:57:12;96282.88;;;5.90;92.45
39769;BME280;38939;47.824;14.642;2022-11-20T00:58:13;96278.50;;;5.90;91.79
39769;BME280;38939;47.824;14.642;2022-11-20T00:59:15;96287.44;;;5.88;91.71
39769;BME280;38939;47.824;14.642;2022-11-20T01:00:17;96285.06;;;5.86;92.07
39769;BME280;38939;47.824;14.642;2022-11-20T01:01:20;96285.84;;;5.87;91.72
39769;BME280;38939;47.824;14.642;2022-11-20T01:02:22;96276.47;;;5.86;92.15
39769;BME280;38939;47.824;14.642;2022-11-20T01:03:24;96278.44;;;5.84;92.42
39769;BME280;38939;47.824;14.642;2022-11-20T01:04:27;96279.44;;;5.82;91.72
39769;BME280;38939;47.824;14.642;2022-11-20T01:05:33;96280.22;;;5.83;92.09
39769;BME280;38939;47.824;14.642;2022-11-20T01:06:35;96282.81;;;5.83;92.01
39769;BME280;38939;47.824;14.642;2022-11-20T01:07:38;96279.06;;;5.86;92.10
39769;BME280;38939;47.824;14.642;2022-11-20T01:08:40;96282.06;;;5.89;91.79
39769;BME280;38939;47.824;14.642;2022-11-20T01:09:42;96280.09;;;5.91;91.77
39769;BME280;38939;47.824;14.642;2022-11-20T01:10:44;96278.31;;;5.92;91.66
39769;BME280;38939;47.824;14.642;2022-11-20T01:11:46;96274.75;;;5.93;91.17
39769;BME280;38939;47.824;14.642;2022-11-20T01:12:47;96277.31;;;5.93;91.16
39769;BME280;38939;47.824;14.642;2022-11-20T01:14:10;96283.28;;;5.93;91.48
39769;BME280;38939;47.824;14.642;2022-11-20T01:15:13;96286.72;;;5.94;91.72
39769;BME280;38939;47.824;14.642;2022-11-20T01:16:16;96287.69;;;5.93;90.85
39769;BME280;38939;47.824;14.642;2022-11-20T01:17:18;96281.28;;;5.89;91.75
39769;BME280;38939;47.824;14.642;2022-11-20T01:18:20;96287.25;;;5.89;90.96
39769;BME280;38939;47.824;14.642;2022-11-20T01:19:22;96277.69;;;5.90;90.77
39769;BME280;38939;47.824;14.642;2022-11-20T01:20:25;96287.06;;;5.91;91.40
39769;BME280;38939;47.824;14.642;2022-11-20T01:21:31;96285.22;;;5.85;91.00
39769;BME280;38939;47.824;14.642;2022-11-20T01:22:33;96281.63;;;5.86;91.35
39769;BME280;38939;47.824;14.642;2022-11-20T01:23:35;96283.88;;;5.89;91.20
39769;BME280;38939;47.824;14.642;2022-11-20T01:24:37;96281.88;;;5.91;90.68
39769;BME280;38939;47.824;14.642;2022-11-20T01:25:39;96283.50;;;5.92;91.09
39769;BME280;38939;47.824;14.642;2022-11-20T01:26:42;96285.88;;;5.93;91.08
39769;BME280;38939;47.824;14.642;2022-11-20T01:27:44;96284.91;;;5.94;90.63
39769;BME280;38939;47.824;14.642;2022-11-20T01:28:46;96291.53;;;5.97;90.73
39769;BME280;38939;47.824;14.642;2022-11-20T01:29:48;96282.31;;;5.94;90.47
39769;BME280;38939;47.824;14.642;2022-11-20T01:30:50;96281.72;;;5.92;90.50
39769;BME280;38939;47.824;14.642;2022-11-20T01:31:52;96285.09;;;5.93;90.33
39769;BME280;38939;47.824;14.642;2022-11-20T01:32:55;96277.00;;;5.96;90.58
39769;BME280;38939;47.824;14.642;2022-11-20T01:33:58;96281.97;;;5.97;90.53
39769;BME280;38939;47.824;14.642;2022-11-20T01:35:00;96284.56;;;5.97;91.05
39769;BME280;38939;47.824;14.642;2022-11-20T01:36:05;96283.28;;;5.93;90.33
39769;BME280;38939;47.824;14.642;2022-11-20T01:37:07;96286.47;;;5.89;90.58
39769;BME280;38939;47.824;14.642;2022-11-20T01:38:09;96286.47;;;5.89;91.12
39769;BME280;38939;47.824;14.642;2022-11-20T01:39:12;96281.28;;;5.89;90.56
39769;BME280;38939;47.824;14.642;2022-11-20T01:40:15;96285.66;;;5.88;90.77
39769;BME280;38939;47.824;14.642;2022-11-20T01:41:16;96289.22;;;5.87;90.76
39769;BME280;38939;47.824;14.642;2022-11-20T01:42:37;96289.78;;;5.82;91.18
39769;BME280;38939;47.824;14.642;2022-11-20T01:43:57;96286.19;;;5.84;90.19
39769;BME280;38939;47.824;14.642;2022-11-20T01:45:00;96289.41;;;5.86;90.18
39769;BME280;38939;47.824;14.642;2022-11-20T01:46:13;96288.59;;;5.85;90.80
39769;BME280;38939;47.824;14.642;2022-11-20T01:47:24;96294.59;;;5.86;90.64
39769;BME280;38939;47.824;14.642;2022-11-20T01:48:35;96285.84;;;5.87;90.87
39769;BME280;38939;47.824;14.642;2022-11-20T01:49:39;96292.59;;;5.88;90.34
39769;BME280;38939;47.824;14.642;2022-11-20T01:50:42;96287.03;;;5.84;90.20
39769;BME280;38939;47.824;14.642;2022-11-20T01:51:50;96286.59;;;5.80;90.89
39769;BME280;38939;47.824;14.642;2022-11-20T01:53:07;96278.81;;;5.80;91.17
39769;BME280;38939;47.824;14.642;2022-11-20T01:54:13;96288.19;;;5.81;90.74
39769;BME280;38939;47.824;14.642;2022-11-20T01:55:18;96281.03;;;5.84;90.50
39769;BME280;38939;47.824;14.642;2022-11-20T01:56:20;96291.59;;;5.82;90.50
39769;BME280;38939;47.824;14.642;2022-11-20T01:57:22;96294.97;;;5.82;91.03
39769;BME280;38939;47.824;14.642;2022-11-20T01:58:30;96293.78;;;5.85;90.42
39769;BME280;38939;47.824;14.642;2022-11-20T01:59:34;96289.22;;;5.87;91.06
39769;BME280;38939;47.824;14.642;2022-11-20T02:00:37;96289.03;;;5.89;91.18
39769;BME280;38939;47.824;14.642;2022-11-20T02:01:39;96290.63;;;5.90;91.00
39769;BME280;38939;47.824;14.642;2022-11-20T02:02:42;96289.84;;;5.89;90.83
39769;BME280;38939;47.824;14.642;2022-11-20T02:03:45;96291.38;;;5.84;90.58
39769;BME280;38939;47.824;14.642;2022-11-20T02:04:49;96293.34;;;5.81;90.86
39769;BME280;38939;47.824;14.642;2022-11-20T02:06:59;96294.97;;;5.82;90.55
39769;BME280;38939;47.824;14.642;2022-11-20T02:08:02;96298.16;;;5.85;91.06
39769;BME280;38939;47.824;14.642;2022-11-20T02:09:05;96301.38;;;5.87;90.88
39769;BME280;38939;47.824;14.642;2022-11-20T02:10:06;96303.78;;;5.88;91.37
39769;BME280;38939;47.824;14.642;2022-11-20T02:11:08;96299.22;;;5.90;90.88
39769;BME280;38939;47.824;14.642;2022-11-20T02:12:10;96299.03;;;5.92;91.35
39769;BME280;38939;47.824;14.642;2022-11-20T02:13:33;96299.84;;;5.92;91.57
39769;BME280;38939;47.824;14.642;2022-11-20T02:14:44;96301.00;;;5.90;90.45
39769;BME280;38939;47.824;14.642;2022-11-20T02:15:46;96298.78;;;5.87;90.55
39769;BME280;38939;47.824;14.642;2022-11-20T02:16:48;96295.81;;;5.90;90.35
39769;BME280;38939;47.824;14.642;2022-11-20T02:17:51;96291.44;;;5.90;90.35
39769;BME280;38939;47.824;14.642;2022-11-20T02:18:53;96288.03;;;5.90;91.17
39769;BME280;38939;47.824;14.642;2022-11-20T02:19:56;96285.28;;;5.91;90.33
39769;BME280;38939;47.824;14.642;2022-11-20T02:21:04;96285.09;;;5.93;90.82
39769;BME280;38939;47.824;14.642;2022-11-20T02:22:12;96281.72;;;5.92;90.94
39769;BME280;38939;47.824;14.642;2022-11-20T02:24:32;96275.75;;;5.92;90.35
39769;BME280;38939;47.824;14.642;2022-11-20T02:25:35;96279.44;;;5.82;91.28
39769;BME280;38939;47.824;14.642;2022-11-20T02:26:42;96282.38;;;5.79;90.93
39769;BME280;38939;47.824;14.642;2022-11-20T02:27:45;96285.97;;;5.78;90.94
39769;BME280;38939;47.824;14.642;2022-11-20T02:28:48;96279.78;;;5.79;90.88
39769;BME280;38939;47.824;14.642;2022-11-20T02:29:51;96279.19;;;5.77;91.37
39769;BME280;38939;47.824;14.642;2022-11-20T02:30:54;96280.94;;;5.70;91.44
39769;BME280;38939;47.824;14.642;2022-11-20T02:31:56;96283.69;;;5.69;91.40
39769;BME280;38939;47.824;14.642;2022-11-20T02:33:00;96289.31;;;5.72;91.92
39769;BME280;38939;47.824;14.642;2022-11-20T02:34:02;96286.34;;;5.75;92.01
39769;BME280;38939;47.824;14.642;2022-11-20T02:36:09;96274.81;;;5.78;92.16
39769;BME280;38939;47.824;14.642;2022-11-20T02:37:13;96280.19;;;5.76;91.98
39769;BME280;38939;47.824;14.642;2022-11-20T02:38:15;96275.81;;;5.77;91.43
39769;BME280;38939;47.824;14.642;2022-11-20T02:39:17;96285.72;;;5.73;92.12
39769;BME280;38939;47.824;14.642;2022-11-20T02:40:20;96290.06;;;5.45;92.91
39769;BME280;38939;47.824;14.642;2022-11-20T02:41:30;96290.97;;;5.37;93.19
39769;BME280;38939;47.824;14.642;2022-11-20T02:42:31;96285.06;;;5.43;92.89
39769;BME280;38939;47.824;14.642;2022-11-20T02:43:33;96284.94;;;5.51;93.09
39769;BME280;38939;47.824;14.642;2022-11-20T02:44:35;96289.38;;;5.57;93.02
39769;BME280;38939;47.824;14.642;2022-11-20T02:45:37;96286.97;;;5.56;93.79
39769;BME280;38939;47.824;14.642;2022-11-20T02:46:39;96287.59;;;5.58;93.25
39769;BME280;38939;47.824;14.642;2022-11-20T02:47:41;96285.44;;;5.61;93.08
39769;BME280;38939;47.824;14.642;2022-11-20T02:48:42;96289.25;;;5.66;93.39
39769;BME280;38939;47.824;14.642;2022-11-20T02:49:44;96291.28;;;5.70;93.41
39769;BME280;38939;47.824;14.642;2022-11-20T02:50:46;96296.69;;;5.75;93.09
39769;BME280;38939;47.824;14.642;2022-11-20T02:51:48;96290.38;;;5.78;92.53
39769;BME280;38939;47.824;14.642;2022-11-20T02:52:50;96286.78;;;5.79;92.88
39769;BME280;38939;47.824;14.642;2022-11-20T02:53:52;96291.34;;;5.77;92.73
39769;BME280;38939;47.824;14.642;2022-11-20T02:54:54;96282.59;;;5.78;92.45
39769;BME280;38939;47.824;14.642;2022-11-20T02:55:55;96289.53;;;5.77;92.73
39769;BME280;38939;47.824;14.642;2022-11-20T02:56:57;96284.97;;;5.79;92.08
39769;BME280;38939;47.824;14.642;2022-11-20T02:57:59;96283.75;;;5.75;92.60
39769;BME280;38939;47.824;14.642;2022-11-20T02:59:01;96280.53;;;5.73;92.75
39769;BME280;38939;47.824;14.642;2022-11-20T03:00:03;96281.16;;;5.75;92.91
39769;BME280;38939;47.824;14.642;2022-11-20T03:01:05;96277.59;;;5.76;92.26
39769;BME280;38939;47.824;14.642;2022-11-20T03:02:07;96275.44;;;5.80;92.35
39769;BME280;38939;47.824;14.642;2022-11-20T03:03:09;96289.00;;;5.82;92.25
39769;BME280;38939;47.824;14.642;2022-11-20T03:04:11;96289.78;;;5.82;92.86
39769;BME280;38939;47.824;14.642;2022-11-20T03:05:13;96274.88;;;5.85;91.99
39769;BME280;38939;47.824;14.642;2022-11-20T03:06:15;96286.81;;;5.86;92.64
39769;BME280;38939;47.824;14.642;2022-11-20T03:07:18;96280.66;;;5.87;91.71
39769;BME280;38939;47.824;14.642;2022-11-20T03:08:19;96286.47;;;5.89;92.24
39769;BME280;38939;47.824;14.642;2022-11-20T03:09:21;96285.44;;;5.90;92.07
39769;BME280;38939;47.824;14.642;2022-11-20T03:10:23;96290.84;;;5.88;92.41
39769;BME280;38939;47.824;14.642;2022-11-20T03:11:26;96297.44;;;5.91;91.51
39769;BME280;38939;47.824;14.642;2022-11-20T03:12:28;96300.00;;;5.91;91.82
39769;BME280;38939;47.824;14.642;2022-11-20T03:13:30;96297.84;;;5.94;91.63
39769;BME280;38939;47.824;14.642;2022-11-20T03:14:32;96307.06;;;5.97;91.83
39769;BME280;38939;47.824;14.642;2022-11-20T03:15:35;96300.09;;;5.97;91.71
39769;BME280;38939;47.824;14.642;2022-11-20T03:16:37;96305.47;;;5.96;91.96
39769;BME280;38939;47.824;14.642;2022-11-20T03:17:39;96296.88;;;5.95;91.87
39769;BME280;38939;47.824;14.642;2022-11-20T03:18:41;96295.13;;;5.96;91.44
39769;BME280;38939;47.824;14.642;2022-11-20T03:19:43;96288.69;;;5.92;91.97
39769;BME280;38939;47.824;14.642;2022-11-20T03:20:45;96292.25;;;5.91;91.78
39769;BME280;38939;47.824;14.642;2022-11-20T03:21:47;96289.03;;;5.89;91.41
39769;BME280;38939;47.824;14.642;2022-11-20T03:22:48;96293.00;;;5.85;91.59
39769;BME280;38939;47.824;14.642;2022-11-20T03:23:50;96300.16;;;5.82;91.86
39769;BME280;38939;47.824;14.642;2022-11-20T03:24:52;96304.53;;;5.82;92.20
39769;BME280;38939;47.824;14.642;2022-11-20T03:25:54;96301.72;;;5.84;92.27
39769;BME280;38939;47.824;14.642;2022-11-20T03:26:56;96305.50;;;5.81;91.61
39769;BME280;38939;47.824;14.642;2022-11-20T03:27:57;96304.09;;;5.78;91.85
39769;BME280;38939;47.824;14.642;2022-11-20T03:29:01;96301.72;;;5.84;91.53
39769;BME280;38939;47.824;14.642;2022-11-20T03:30:03;96300.59;;;5.86;91.96
39769;BME280;38939;47.824;14.642;2022-11-20T03:31:06;96299.75;;;5.86;92.33
39769;BME280;38939;47.824;14.642;2022-11-20T03:32:08;96301.56;;;5.85;92.41
39769;BME280;38939;47.824;14.642;2022-11-20T03:33:10;96299.53;;;5.80;92.15
39769;BME280;38939;47.824;14.642;2022-11-20T03:34:12;96296.94;;;5.80;91.91
39769;BME280;38939;47.824;14.642;2022-11-20T03:35:14;96299.53;;;5.80;91.98
39769;BME280;38939;47.824;14.642;2022-11-20T03:36:17;96299.34;;;5.82;92.60
39769;BME280;38939;47.824;14.642;2022-11-20T03:37:19;96298.16;;;5.85;92.17
39769;BME280;38939;47.824;14.642;2022-11-20T03:38:21;96304.56;;;5.89;92.16
39769;BME280;38939;47.824;14.642;2022-11-20T03:39:23;96299.03;;;5.92;91.69
39769;BME280;38939;47.824;14.642;2022-11-20T03:40:25;96302.25;;;5.94;92.40
39769;BME280;38939;47.824;14.642;2022-11-20T03:41:27;96301.88;;;5.97;92.26
39769;BME280;38939;47.824;14.642;2022-11-20T03:42:30;96296.34;;;6.00;91.37
39769;BME280;38939;47.824;14.642;2022-11-20T03:44:05;96297.94;;;6.01;91.78
39769;BME280;38939;47.824;14.642;2022-11-20T03:45:08;96299.72;;;6.00;91.32
39769;BME280;38939;47.824;14.642;2022-11-20T03:46:10;96299.13;;;5.98;91.58
39769;BME280;38939;47.824;14.642;2022-11-20T03:47:12;96292.13;;;5.99;91.76
39769;BME280;38939;47.824;14.642;2022-11-20T03:48:13;96290.16;;;6.01;90.96
39769;BME280;38939;47.824;14.642;2022-11-20T03:49:15;96290.16;;;6.01;90.90
39769;BME280;38939;47.824;14.642;2022-11-20T03:50:17;96298.94;;;6.00;91.00
39769;BME280;38939;47.824;14.642;2022-11-20T03:51:23;96291.16;;;6.00;90.77
39769;BME280;38939;47.824;14.642;2022-11-20T03:52:25;96294.72;;;5.99;90.96
39769;BME280;38939;47.824;14.642;2022-11-20T03:53:27;96302.69;;;5.97;91.83
39769;BME280;38939;47.824;14.642;2022-11-20T03:54:29;96293.94;;;5.98;91.49
39769;BME280;38939;47.824;14.642;2022-11-20T03:55:31;96298.94;;;6.00;91.61
39769;BME280;38939;47.824;14.642;2022-11-20T03:56:34;96301.53;;;6.00;91.31
39769;BME280;38939;47.824;14.642;2022-11-20T03:57:36;96299.91;;;5.99;90.84
39769;BME280;38939;47.824;14.642;2022-11-20T03:58:38;96295.53;;;5.99;91.31
39769;BME280;38939;47.824;14.642;2022-11-20T03:59:41;96297.94;;;6.01;90.83
39769;BME280;38939;47.824;14.642;2022-11-20T04:00:42;96301.13;;;6.03;90.90
39769;BME280;38939;47.824;14.642;2022-11-20T04:01:44;96294.38;;;6.02;91.23
39769;BME280;38939;47.824;14.642;2022-11-20T04:02:49;96298.69;;;5.95;90.88
39769;BME280;38939;47.824;14.642;2022-11-20T04:03:52;96295.28;;;5.94;91.53
39769;BME280;38939;47.824;14.642;2022-11-20T04:04:54;96293.50;;;5.95;91.32
39769;BME280;38939;47.824;14.642;2022-11-20T04:06:00;96301.88;;;5.97;91.69
39769;BME280;38939;47.824;14.642;2022-11-20T04:07:02;96286.09;;;5.92;91.63
39769;BME280;38939;47.824;14.642;2022-11-20T04:08:04;96291.88;;;5.94;91.57
39769;BME280;38939;47.824;14.642;2022-11-20T04:09:06;96293.50;;;5.95;91.80
39769;BME280;38939;47.824;14.642;2022-11-20T04:10:08;96295.44;;;5.93;91.53
39769;BME280;38939;47.824;14.642;2022-11-20T04:11:17;96289.03;;;5.89;91.71
39769;BME280;38939;47.824;14.642;2022-11-20T04:12:20;96293.88;;;5.92;92.13
39769;BME280;38939;47.824;14.642;2022-11-20T04:13:22;96287.50;;;5.94;92.00
39769;BME280;38939;47.824;14.642;2022-11-20T04:14:24;96282.78;;;5.98;92.07
39769;BME280;38939;47.824;14.642;2022-11-20T04:15:25;96289.56;;;5.99;92.65
39769;BME280;38939;47.824;14.642;2022-11-20T04:16:32;96288.94;;;5.97;92.06
39769;BME280;38939;47.824;14.642;2022-11-20T04:17:34;96285.38;;;5.98;91.98
39769;BME280;38939;47.824;14.642;2022-11-20T04:18:36;96279.19;;;5.99;91.35
39769;BME280;38939;47.824;14.642;2022-11-20T04:19:37;96278.22;;;6.00;91.32
39769;BME280;38939;47.824;14.642;2022-11-20T04:20:39;96277.81;;;6.03;91.86
39769;BME280;38939;47.824;14.642;2022-11-20T04:21:42;96290.41;;;6.06;91.72
39769;BME280;38939;47.824;14.642;2022-11-20T04:22:44;96284.22;;;6.07;92.12
39769;BME280;38939;47.824;14.642;2022-11-20T04:23:46;96287.59;;;6.08;91.36
39769;BME280;38939;47.824;14.642;2022-11-20T04:24:47;96290.03;;;6.09;91.57
39769;BME280;38939;47.824;14.642;2022-11-20T04:25:49;96288.44;;;6.08;91.04
39769;BME280;38939;47.824;14.642;2022-11-20T04:26:51;96285.03;;;6.08;91.11
39769;BME280;38939;47.824;14.642;2022-11-20T04:27:53;96284.41;;;6.06;91.14
39769;BME280;38939;47.824;14.642;2022-11-20T04:28:56;96286.81;;;6.07;91.80
39769;BME280;38939;47.824;14.642;2022-11-20T04:29:59;96292.78;;;6.08;91.72
39769;BME280;38939;47.824;14.642;2022-11-20T04:31:01;96287.44;;;6.09;92.02
39769;BME280;38939;47.824;14.642;2022-11-20T04:32:04;96301.16;;;6.10;90.92
39769;BME280;38939;47.824;14.642;2022-11-20T04:33:05;96297.00;;;6.09;91.39
39769;BME280;38939;47.824;14.642;2022-11-20T04:34:07;96288.22;;;6.10;91.34
39769;BME280;38939;47.824;14.642;2022-11-20T04:35:09;96291.63;;;6.10;91.32
39769;BME280;38939;47.824;14.642;2022-11-20T04:36:12;96294.22;;;6.10;91.65
39769;BME280;38939;47.824;14.642;2022-11-20T04:37:14;96291.63;;;6.10;90.53
39769;BME280;38939;47.824;14.642;2022-11-20T04:38:16;96290.03;;;6.09;91.58
39769;BME280;38939;47.824;14.642;2022-11-20T04:39:19;96286.81;;;6.07;91.14
39769;BME280;38939;47.824;14.642;2022-11-20T04:40:21;96285.22;;;6.06;90.81
39769;BME280;38939;47.824;14.642;2022-11-20T04:41:24;96290.78;;;6.03;91.24
39769;BME280;38939;47.824;14.642;2022-11-20T04:42:26;96283.41;;;6.00;91.15
39769;BME280;38939;47.824;14.642;2022-11-20T04:43:31;96279.19;;;5.99;90.75
39769;BME280;38939;47.824;14.642;2022-11-20T04:44:33;96284.38;;;5.99;90.68
39769;BME280;38939;47.824;14.642;2022-11-20T04:45:35;96283.56;;;5.98;91.34
39769;BME280;38939;47.824;14.642;2022-11-20T04:46:38;96285.16;;;5.99;91.16
39769;BME280;38939;47.824;14.642;2022-11-20T04:47:40;96282.78;;;5.98;91.55
39769;BME280;38939;47.824;14.642;2022-11-20T04:48:42;96283.16;;;5.95;91.08
39769;BME280;38939;47.824;14.642;2022-11-20T04:49:44;96281.53;;;5.94;91.72
39769;BME280;38939;47.824;14.642;2022-11-20T04:50:46;96282.50;;;5.93;91.76
39769;BME280;38939;47.824;14.642;2022-11-20T04:51:48;96287.69;;;5.93;90.96
39769;BME280;38939;47.824;14.642;2022-11-20T04:52:50;96288.31;;;5.95;91.16
39769;BME280;38939;47.824;14.642;2022-11-20T04:53:52;96283.16;;;5.95;91.47
39769;BME280;38939;47.824;14.642;2022-11-20T04:54:54;96279.72;;;5.94;90.81
39769;BME280;38939;47.824;14.642;2022-11-20T04:56:00;96279.91;;;5.93;91.08
39769;BME280;38939;47.824;14.642;2022-11-20T04:57:02;96273.59;;;5.95;91.06
39769;BME280;38939;47.824;14.642;2022-11-20T04:58:04;96287.13;;;5.97;91.39
39769;BME280;38939;47.824;14.642;2022-11-20T04:59:06;96287.97;;;5.98;90.74
39769;BME280;38939;47.824;14.642;2022-11-20T05:00:08;96281.78;;;5.99;91.26
39769;BME280;38939;47.824;14.642;2022-11-20T05:01:11;96284.97;;;6.01;90.82
39769;BME280;38939;47.824;14.642;2022-11-20T05:02:14;96279.63;;;6.03;90.69
39769;BME280;38939;47.824;14.642;2022-11-20T05:03:16;96290.16;;;6.01;90.75
39769;BME280;38939;47.824;14.642;2022-11-20T05:04:17;96287.34;;;5.96;91.55
39769;BME280;38939;47.824;14.642;2022-11-20T05:05:19;96279.59;;;5.96;90.85
39769;BME280;38939;47.824;14.642;2022-11-20T05:06:21;96284.38;;;5.99;91.48
39769;BME280;38939;47.824;14.642;2022-11-20T05:07:23;96283.41;;;6.00;91.78
39769;BME280;38939;47.824;14.642;2022-11-20T05:08:25;96283.19;;;6.01;91.82
39769;BME280;38939;47.824;14.642;2022-11-20T05:09:27;96282.41;;;6.01;90.78
39769;BME280;38939;47.824;14.642;2022-11-20T05:10:29;96280.19;;;5.98;91.72
39769;BME280;38939;47.824;14.642;2022-11-20T05:11:31;96279.59;;;5.96;90.97
39769;BME280;38939;47.824;14.642;2022-11-20T05:12:33;96277.00;;;5.96;91.67
39769;BME280;38939;47.824;14.642;2022-11-20T05:13:35;96274.41;;;5.96;91.10
39769;BME280;38939;47.824;14.642;2022-11-20T05:14:37;96277.97;;;5.95;91.48
39769;BME280;38939;47.824;14.642;2022-11-20T05:15:39;96282.19;;;5.96;91.60
39769;BME280;38939;47.824;14.642;2022-11-20T05:16:41;96282.19;;;5.96;91.50
39769;BME280;38939;47.824;14.642;2022-11-20T05:17:47;96281.53;;;5.94;91.22
39769;BME280;38939;47.824;14.642;2022-11-20T05:18:50;96284.75;;;5.96;91.63
39769;BME280;38939;47.824;14.642;2022-11-20T05:19:52;96287.34;;;5.96;90.93
39769;BME280;38939;47.824;14.642;2022-11-20T05:20:54;96282.88;;;5.90;91.14
39769;BME280;38939;47.824;14.642;2022-11-20T05:21:56;96294.22;;;5.89;91.32
39769;BME280;38939;47.824;14.642;2022-11-20T05:22:58;96292.25;;;5.91;91.91
39769;BME280;38939;47.824;14.642;2022-11-20T05:24:00;96287.06;;;5.91;92.26
39769;BME280;38939;47.824;14.642;2022-11-20T05:25:02;96285.84;;;5.87;92.23
39769;BME280;38939;47.824;14.642;2022-11-20T05:26:05;96291.03;;;5.87;91.75
39769;BME280;38939;47.824;14.642;2022-11-20T05:27:06;96288.25;;;5.88;91.52
39769;BME280;38939;47.824;14.642;2022-11-20T05:28:08;96299.41;;;5.89;92.58
39769;BME280;38939;47.824;14.642;2022-11-20T05:29:11;96293.59;;;5.87;92.08
39769;BME280;38939;47.824;14.642;2022-11-20T05:30:13;96301.38;;;5.87;91.55
39769;BME280;38939;47.824;14.642;2022-11-20T05:31:18;96301.38;;;5.87;92.00
39769;BME280;38939;47.824;14.642;2022-11-20T05:32:27;96292.19;;;5.84;91.62
39769;BME280;38939;47.824;14.642;2022-11-20T05:33:29;96297.38;;;5.84;92.32
39769;BME280;38939;47.824;14.642;2022-11-20T05:34:31;96299.75;;;5.86;92.38
39769;BME280;38939;47.824;14.642;2022-11-20T05:35:33;96304.94;;;5.86;92.26
39769;BME280;38939;47.824;14.642;2022-11-20T05:36:35;96304.94;;;5.86;92.39